createdAt,value
2023-01-19T00:00:55.761Z,0.70
2023-01-19T00:03:22.934Z,0.80
2023-01-19T00:05:49.993Z,0.70
2023-01-19T00:08:17.818Z,0.70
2023-01-19T00:10:48.349Z,0.82
2023-01-19T00:13:16.276Z,1.30
2023-01-19T00:15:44.247Z,1.25
2023-01-19T00:18:11.487Z,1.50
2023-01-19T00:20:39.813Z,1.40
2023-01-19T00:23:08.414Z,1.10
2023-01-19T00:25:36.073Z,1.20
2023-01-19T00:28:03.276Z,1.63
2023-01-19T00:30:30.540Z,1.10
2023-01-19T00:32:57.798Z,0.90
2023-01-19T00:35:25.364Z,1.20
2023-01-19T00:37:52.438Z,1.20
2023-01-19T00:40:19.544Z,0.80
2023-01-19T00:42:48.623Z,0.93
2023-01-19T00:45:23.429Z,0.73
2023-01-19T00:47:55.079Z,0.80
2023-01-19T00:50:22.374Z,0.85
2023-01-19T00:52:49.476Z,1.00
2023-01-19T00:55:17.117Z,1.20
2023-01-19T00:57:44.208Z,1.05
2023-01-19T01:00:14.462Z,1.20
2023-01-19T01:02:43.116Z,1.05
2023-01-19T01:05:12.494Z,1.17
2023-01-19T01:07:49.000Z,0.90
2023-01-19T01:10:26.273Z,0.90
2023-01-19T01:12:59.225Z,1.45
2023-01-19T01:15:29.721Z,1.10
2023-01-19T01:17:56.710Z,1.10
2023-01-19T01:20:28.375Z,1.70
2023-01-19T01:22:56.499Z,1.20
2023-01-19T01:25:25.191Z,1.10
2023-01-19T01:27:52.395Z,1.80
2023-01-19T01:30:20.031Z,1.20
2023-01-19T01:32:47.193Z,1.35
2023-01-19T01:35:14.988Z,1.10
2023-01-19T01:37:45.515Z,1.20
2023-01-19T01:40:14.526Z,1.25
2023-01-19T01:42:42.748Z,1.10
2023-01-19T01:45:28.558Z,0.90
2023-01-19T01:48:01.904Z,1.10
2023-01-19T01:50:31.804Z,1.60
2023-01-19T01:53:15.015Z,0.90
2023-01-19T01:55:47.045Z,1.13
2023-01-19T01:58:16.476Z,1.05
2023-01-19T02:01:02.338Z,1.00
2023-01-19T02:03:29.812Z,1.17
2023-01-19T02:06:01.966Z,1.42
2023-01-19T02:08:53.238Z,1.33
2023-01-19T02:11:39.327Z,1.55
2023-01-19T02:14:07.042Z,1.88
2023-01-19T02:16:36.594Z,1.35
2023-01-19T02:19:05.690Z,1.25
2023-01-19T02:21:43.293Z,1.00
2023-01-19T02:24:11.188Z,1.30
2023-01-19T02:26:47.496Z,1.30
2023-01-19T02:29:21.018Z,1.17
2023-01-19T02:31:48.116Z,1.15
2023-01-19T02:34:18.252Z,1.20
2023-01-19T02:36:52.986Z,1.30
2023-01-19T02:39:25.521Z,1.15
2023-01-19T02:41:57.338Z,1.30
2023-01-19T02:44:25.831Z,1.00
2023-01-19T02:46:55.173Z,1.23
2023-01-19T02:49:22.398Z,1.08
2023-01-19T02:51:49.910Z,1.50
2023-01-19T02:54:25.531Z,1.33
2023-01-19T02:57:11.463Z,1.10
2023-01-19T03:00:13.490Z,1.40
2023-01-19T03:02:55.425Z,1.40
2023-01-19T03:05:51.043Z,1.40
2023-01-19T03:08:29.907Z,1.42
2023-01-19T03:11:06.893Z,1.23
2023-01-19T03:13:44.802Z,1.02
2023-01-19T03:16:15.286Z,1.13
2023-01-19T03:18:46.574Z,1.40
2023-01-19T03:21:16.516Z,1.20
2023-01-19T03:23:46.896Z,1.38
2023-01-19T03:26:19.385Z,1.40
2023-01-19T03:28:48.772Z,1.17
2023-01-19T03:31:21.485Z,0.90
2023-01-19T03:33:53.911Z,1.15
2023-01-19T03:36:29.957Z,1.10
2023-01-19T03:38:58.765Z,1.30
2023-01-19T03:41:27.994Z,1.20
2023-01-19T03:43:56.013Z,1.30
2023-01-19T03:46:25.056Z,1.23
2023-01-19T03:48:52.440Z,1.30
2023-01-19T03:51:19.836Z,1.08
2023-01-19T03:53:47.461Z,1.42
2023-01-19T03:56:19.730Z,0.88
2023-01-19T03:58:47.122Z,0.90
2023-01-19T04:01:15.583Z,1.10
2023-01-19T04:03:47.580Z,1.05
2023-01-19T04:06:14.978Z,0.90
2023-01-19T04:08:42.087Z,1.48
2023-01-19T04:11:10.015Z,1.13
2023-01-19T04:13:37.391Z,1.10
2023-01-19T04:16:05.975Z,1.10
2023-01-19T04:18:34.873Z,1.10
2023-01-19T04:21:07.025Z,1.20
2023-01-19T04:23:34.853Z,1.20
2023-01-19T04:26:06.815Z,1.38
2023-01-19T04:28:35.983Z,1.50
2023-01-19T04:31:03.661Z,1.38
2023-01-19T04:33:31.005Z,1.75
2023-01-19T04:35:58.516Z,1.40
2023-01-19T04:38:26.556Z,1.38
2023-01-19T04:40:54.558Z,2.30
2023-01-19T04:43:22.912Z,2.97
2023-01-19T04:45:50.128Z,2.40
2023-01-19T04:48:18.730Z,1.95
2023-01-19T04:50:46.565Z,2.08
2023-01-19T04:53:14.204Z,2.60
2023-01-19T04:55:41.652Z,1.85
2023-01-19T04:58:08.866Z,1.58
2023-01-19T05:00:36.670Z,1.13
2023-01-19T05:03:05.385Z,1.35
2023-01-19T05:05:33.504Z,1.02
2023-01-19T05:08:00.901Z,1.20
2023-01-19T05:10:28.040Z,1.63
2023-01-19T05:12:55.688Z,1.30
2023-01-19T05:15:22.982Z,1.25
2023-01-19T05:17:50.085Z,1.10
2023-01-19T05:20:17.709Z,1.25
2023-01-19T05:22:53.918Z,1.10
2023-01-19T05:25:21.088Z,1.02
2023-01-19T05:27:48.447Z,0.90
2023-01-19T05:30:15.845Z,1.08
2023-01-19T05:32:43.170Z,1.00
2023-01-19T05:35:10.690Z,1.10
2023-01-19T05:37:37.804Z,1.23
2023-01-19T05:40:05.696Z,0.98
2023-01-19T05:42:33.034Z,0.90
2023-01-19T05:45:00.529Z,0.90
2023-01-19T05:47:30.025Z,0.90
2023-01-19T05:49:57.533Z,0.90
2023-01-19T05:52:25.266Z,0.70
2023-01-19T05:54:52.650Z,0.70
2023-01-19T05:57:19.931Z,0.80
2023-01-19T05:59:47.011Z,0.50
2023-01-19T06:02:14.152Z,0.82
2023-01-19T06:04:41.425Z,0.60
2023-01-19T06:07:08.495Z,0.70
2023-01-19T06:09:35.489Z,0.63
2023-01-19T06:12:02.547Z,0.70
2023-01-19T06:14:29.662Z,0.40
2023-01-19T06:16:56.683Z,0.43
2023-01-19T06:19:23.754Z,0.60
2023-01-19T06:21:52.632Z,0.63
2023-01-19T06:24:20.245Z,0.60
2023-01-19T06:26:47.575Z,0.70
2023-01-19T06:29:14.924Z,0.50
2023-01-19T06:31:42.218Z,0.88
2023-01-19T06:34:09.929Z,0.50
2023-01-19T06:36:37.198Z,0.85
2023-01-19T06:39:06.213Z,0.70
2023-01-19T06:41:34.350Z,0.70
2023-01-19T06:44:01.999Z,0.80
2023-01-19T06:46:29.887Z,0.55
2023-01-19T06:48:57.263Z,0.65
2023-01-19T06:51:24.533Z,1.10
2023-01-19T06:53:51.568Z,1.10
2023-01-19T06:56:18.763Z,1.00
2023-01-19T06:58:48.176Z,1.00
2023-01-19T07:01:15.396Z,0.73
2023-01-19T07:03:43.009Z,1.00
2023-01-19T07:06:12.968Z,0.90
2023-01-19T07:08:40.388Z,1.17
2023-01-19T07:11:27.147Z,1.25
2023-01-19T07:13:56.880Z,2.10
2023-01-19T07:16:24.239Z,2.10
2023-01-19T07:18:51.736Z,2.30
2023-01-19T07:21:19.804Z,2.03
2023-01-19T07:23:50.994Z,1.58
2023-01-19T07:26:22.095Z,1.40
2023-01-19T07:28:49.801Z,1.40
2023-01-19T07:31:17.161Z,1.23
2023-01-19T07:33:44.511Z,1.20
2023-01-19T07:36:12.001Z,1.20
2023-01-19T07:38:39.126Z,1.05
2023-01-19T07:41:09.543Z,1.45
2023-01-19T07:43:36.584Z,1.30
2023-01-19T07:46:06.119Z,1.15
2023-01-19T07:48:33.390Z,1.00
2023-01-19T07:51:02.000Z,1.33
2023-01-19T07:53:38.844Z,0.90
2023-01-19T07:56:07.989Z,0.98
2023-01-19T07:58:35.069Z,1.05
2023-01-19T08:01:07.387Z,0.93
2023-01-19T08:03:34.851Z,0.93
2023-01-19T08:06:02.828Z,0.90
2023-01-19T08:08:30.437Z,1.05
2023-01-19T08:10:57.967Z,0.70
2023-01-19T08:13:25.765Z,1.00
2023-01-19T08:15:54.397Z,1.00
2023-01-19T08:18:21.937Z,0.95
2023-01-19T08:20:49.135Z,0.80
2023-01-19T08:23:18.368Z,0.60
2023-01-19T08:25:46.363Z,0.80
2023-01-19T08:28:15.721Z,0.82
2023-01-19T08:30:46.379Z,0.85
2023-01-19T08:33:14.015Z,0.82
2023-01-19T08:35:42.909Z,0.82
2023-01-19T08:38:10.944Z,0.80
2023-01-19T08:40:40.209Z,0.60
2023-01-19T08:43:10.064Z,0.50
2023-01-19T08:45:41.717Z,0.70
2023-01-19T08:48:10.161Z,1.17
2023-01-19T08:50:37.236Z,1.50
2023-01-19T08:53:07.563Z,1.00
2023-01-19T08:55:36.405Z,1.38
2023-01-19T08:58:05.305Z,0.85
2023-01-19T09:00:40.107Z,0.90
2023-01-19T09:03:09.075Z,0.80
2023-01-19T09:05:39.106Z,0.77
2023-01-19T09:08:11.669Z,0.90
2023-01-19T09:10:39.890Z,0.65
2023-01-19T09:13:11.145Z,0.70
2023-01-19T09:15:39.511Z,0.90
2023-01-19T09:18:10.454Z,0.88
2023-01-19T09:20:39.337Z,0.60
2023-01-19T09:23:06.657Z,0.60
2023-01-19T09:25:33.787Z,0.70
2023-01-19T09:28:01.136Z,0.70
2023-01-19T09:30:28.621Z,0.88
2023-01-19T09:32:55.651Z,0.80
2023-01-19T09:35:22.751Z,0.80
2023-01-19T09:37:49.880Z,0.70
2023-01-19T09:40:19.116Z,0.70
2023-01-19T09:42:52.758Z,0.80
2023-01-19T09:45:39.043Z,0.77
2023-01-19T09:48:21.161Z,1.10
2023-01-19T09:50:49.794Z,0.90
2023-01-19T09:53:26.692Z,0.80
2023-01-19T09:55:53.759Z,0.75
2023-01-19T09:58:21.297Z,0.80
2023-01-19T10:00:57.460Z,0.80
2023-01-19T10:03:24.535Z,0.90
2023-01-19T10:05:57.628Z,0.90
2023-01-19T10:08:43.298Z,0.80
2023-01-19T10:11:51.698Z,1.27
2023-01-19T10:14:34.649Z,0.80
2023-01-19T10:17:19.328Z,0.80
2023-01-19T10:19:51.676Z,1.23
2023-01-19T10:22:25.542Z,1.20
2023-01-19T10:27:32.054Z,1.05
2023-01-19T10:30:00.858Z,1.20
2023-01-19T10:32:34.604Z,1.30
2023-01-19T10:35:12.763Z,1.00
2023-01-19T10:37:45.061Z,1.60
2023-01-19T10:40:12.120Z,1.20
2023-01-19T10:42:41.259Z,1.38
2023-01-19T10:45:19.757Z,1.35
2023-01-19T10:47:48.263Z,1.25
2023-01-19T10:50:37.496Z,1.00
2023-01-19T10:53:06.388Z,1.10
2023-01-19T10:55:38.457Z,0.80
2023-01-19T10:58:07.412Z,0.75
2023-01-19T11:00:44.032Z,0.88
2023-01-19T11:03:28.670Z,1.00
2023-01-19T11:06:15.927Z,0.90
2023-01-19T11:08:44.635Z,1.10
2023-01-19T11:11:15.021Z,1.00
2023-01-19T11:13:44.139Z,1.60
2023-01-19T11:16:25.749Z,2.25
2023-01-19T11:18:54.877Z,2.00
2023-01-19T11:21:26.075Z,1.23
2023-01-19T11:24:02.867Z,3.25
2023-01-19T11:26:49.919Z,1.10
2023-01-19T11:29:23.533Z,0.95
2023-01-19T11:31:51.933Z,0.90
2023-01-19T11:34:39.146Z,0.60
2023-01-19T11:37:27.450Z,1.10
2023-01-19T11:39:58.009Z,0.90
2023-01-19T11:42:26.925Z,1.00
2023-01-19T11:45:16.304Z,0.90
2023-01-19T11:47:52.141Z,1.17
2023-01-19T11:50:41.236Z,0.90
2023-01-19T11:53:17.342Z,1.00
2023-01-19T11:55:48.953Z,1.20
2023-01-19T11:58:20.069Z,0.98
2023-01-19T12:00:53.616Z,1.10
2023-01-19T12:03:32.012Z,1.45
2023-01-19T12:06:04.562Z,1.50
2023-01-19T12:08:37.120Z,1.70
2023-01-19T12:11:06.290Z,1.73
2023-01-19T12:13:34.694Z,1.92
2023-01-19T12:16:08.007Z,1.63
2023-01-19T12:18:44.070Z,1.60
2023-01-19T12:21:11.209Z,1.50
2023-01-19T12:23:59.868Z,1.40
2023-01-19T12:26:33.588Z,2.00
2023-01-19T12:29:14.149Z,2.63
2023-01-19T12:31:43.389Z,2.78
2023-01-19T12:34:26.132Z,2.08
2023-01-19T12:36:56.071Z,2.03
2023-01-19T12:39:25.473Z,2.38
2023-01-19T12:42:15.573Z,2.38
2023-01-19T12:44:43.920Z,2.40
2023-01-19T12:47:10.981Z,2.17
2023-01-19T12:49:47.221Z,2.00
2023-01-19T12:52:21.830Z,1.70
2023-01-19T12:54:57.992Z,1.30
2023-01-19T12:57:33.899Z,1.92
2023-01-19T13:00:05.990Z,1.63
2023-01-19T13:02:47.920Z,1.63
2023-01-19T13:05:19.815Z,1.33
2023-01-19T13:08:07.185Z,1.45
2023-01-19T13:11:11.162Z,1.38
2023-01-19T13:13:38.228Z,1.25
2023-01-19T13:16:28.086Z,1.30
2023-01-19T13:18:56.504Z,2.17
2023-01-19T13:21:26.509Z,1.77
2023-01-19T13:23:56.973Z,2.00
2023-01-19T13:26:27.624Z,1.98
2023-01-19T13:28:58.270Z,2.15
2023-01-19T13:31:26.175Z,2.10
2023-01-19T13:33:55.885Z,2.05
2023-01-19T13:36:33.764Z,2.28
2023-01-19T13:39:06.292Z,2.35
2023-01-19T13:41:37.878Z,3.00
2023-01-19T13:44:28.123Z,2.50
2023-01-19T13:46:56.863Z,3.67
2023-01-19T13:49:30.805Z,3.20
2023-01-19T13:52:27.020Z,3.97
2023-01-19T13:55:01.777Z,2.75
2023-01-19T13:57:41.208Z,2.67
2023-01-19T14:00:16.757Z,2.97
2023-01-19T14:02:59.525Z,2.67
2023-01-19T14:05:34.407Z,2.75
2023-01-19T14:08:13.610Z,2.75
2023-01-19T14:10:48.121Z,2.47
2023-01-19T14:13:22.669Z,2.85
2023-01-19T14:15:52.020Z,3.80
2023-01-19T14:18:19.088Z,3.63
2023-01-19T14:21:08.225Z,4.00
2023-01-19T14:24:08.802Z,2.22
2023-01-19T14:26:54.128Z,1.50
2023-01-19T14:29:28.964Z,1.58
2023-01-19T14:32:01.876Z,1.50
2023-01-19T14:34:47.264Z,1.88
2023-01-19T14:37:32.007Z,1.20
2023-01-19T14:40:11.201Z,1.30
2023-01-19T14:43:09.239Z,1.98
2023-01-19T14:45:43.411Z,1.38
2023-01-19T14:48:19.850Z,1.30
2023-01-19T14:51:02.488Z,1.00
2023-01-19T14:53:37.235Z,0.95
2023-01-19T14:56:06.494Z,1.13
2023-01-19T14:58:35.605Z,1.30
2023-01-19T15:01:03.814Z,1.65
2023-01-19T15:03:44.012Z,1.90
2023-01-19T15:06:20.806Z,2.00
2023-01-19T15:08:50.914Z,1.70
2023-01-19T15:11:34.921Z,2.45
2023-01-19T15:14:03.297Z,2.80
2023-01-19T15:16:33.126Z,1.90
2023-01-19T15:19:00.568Z,3.10
2023-01-19T15:21:27.800Z,3.42
2023-01-19T15:23:58.006Z,3.00
2023-01-19T15:26:26.577Z,2.70
2023-01-19T15:28:54.185Z,2.80
2023-01-19T15:31:23.913Z,3.45
2023-01-19T15:33:51.045Z,2.30
2023-01-19T15:36:20.374Z,2.17
2023-01-19T15:38:47.931Z,2.90
2023-01-19T15:41:18.450Z,2.65
2023-01-19T15:43:45.935Z,2.72
2023-01-19T15:46:15.867Z,2.92
2023-01-19T15:48:43.084Z,2.30
2023-01-19T15:51:19.174Z,2.50
2023-01-19T15:53:46.669Z,2.38
2023-01-19T15:56:24.936Z,2.33
2023-01-19T15:58:53.145Z,2.47
2023-01-19T16:01:22.930Z,2.00
2023-01-19T16:03:51.187Z,2.03
2023-01-19T16:06:18.510Z,2.03
2023-01-19T16:08:45.857Z,1.75
2023-01-19T16:11:15.898Z,1.60
2023-01-19T16:13:46.701Z,1.45
2023-01-19T16:16:19.316Z,2.10
2023-01-19T16:18:46.750Z,2.50
2023-01-19T16:21:14.026Z,1.90
2023-01-19T16:23:41.144Z,1.40
2023-01-19T16:26:23.922Z,1.20
2023-01-19T16:28:50.964Z,1.10
2023-01-19T16:31:18.050Z,1.05
2023-01-19T16:33:45.821Z,0.95
2023-01-19T16:36:29.111Z,1.33
2023-01-19T16:38:59.783Z,0.80
2023-01-19T16:41:27.120Z,0.90
2023-01-19T16:43:55.823Z,1.20
2023-01-19T16:46:28.225Z,0.98
2023-01-19T16:49:00.446Z,1.00
2023-01-19T16:51:28.093Z,1.38
2023-01-19T16:53:55.251Z,2.25
2023-01-19T16:56:22.454Z,1.85
2023-01-19T16:58:53.703Z,2.05
2023-01-19T17:01:21.473Z,2.45
2023-01-19T17:03:49.115Z,1.83
2023-01-19T17:06:18.997Z,1.88
2023-01-19T17:08:47.267Z,2.30
2023-01-19T17:11:20.891Z,2.15
2023-01-19T17:14:10.553Z,2.10
2023-01-19T17:16:37.812Z,1.88
2023-01-19T17:19:06.583Z,2.00
2023-01-19T17:21:34.356Z,2.78
2023-01-19T17:24:02.100Z,2.60
2023-01-19T17:26:31.169Z,2.80
2023-01-19T17:29:03.788Z,3.22
2023-01-19T17:31:32.442Z,3.10
2023-01-19T17:34:00.425Z,2.70
2023-01-19T17:36:30.042Z,2.60
2023-01-19T17:38:58.895Z,2.67
2023-01-19T17:41:31.212Z,2.35
2023-01-19T17:43:59.744Z,2.35
2023-01-19T17:46:28.376Z,2.65
2023-01-19T17:49:00.444Z,3.00
2023-01-19T17:51:28.279Z,2.00
2023-01-19T17:53:56.010Z,2.78
2023-01-19T17:56:30.103Z,1.60
2023-01-19T17:58:58.952Z,1.50
2023-01-19T18:01:31.389Z,1.48
2023-01-19T18:03:58.953Z,1.33
2023-01-19T18:06:26.054Z,1.30
2023-01-19T18:08:53.277Z,1.30
2023-01-19T18:11:21.480Z,1.30
2023-01-19T18:13:50.066Z,1.10
2023-01-19T18:16:28.232Z,1.00
2023-01-19T18:18:56.685Z,1.20
2023-01-19T18:21:25.324Z,1.13
2023-01-19T18:23:52.525Z,1.30
2023-01-19T18:26:21.765Z,1.17
2023-01-19T18:28:49.486Z,1.15
2023-01-19T18:31:18.656Z,1.30
2023-01-19T18:33:45.917Z,1.02
2023-01-19T18:36:13.476Z,1.10
2023-01-19T18:38:40.819Z,1.50
2023-01-19T18:41:11.297Z,1.30
2023-01-19T18:43:38.958Z,1.52
2023-01-19T18:46:06.741Z,1.52
2023-01-19T18:48:34.284Z,1.35
2023-01-19T18:51:06.239Z,1.40
2023-01-19T18:53:33.402Z,1.70
2023-01-19T18:56:02.332Z,1.55
2023-01-19T18:58:30.316Z,1.63
2023-01-19T19:00:58.445Z,1.80
2023-01-19T19:03:25.747Z,2.00
2023-01-19T19:05:52.786Z,2.05
2023-01-19T19:08:19.898Z,1.75
2023-01-19T19:10:46.985Z,2.20
2023-01-19T19:13:16.508Z,1.63
2023-01-19T19:15:44.710Z,2.17
2023-01-19T19:18:16.564Z,1.48
2023-01-19T19:20:43.815Z,1.67
2023-01-19T19:23:12.071Z,1.55
2023-01-19T19:25:39.325Z,1.65
2023-01-19T19:28:06.812Z,1.50
2023-01-19T19:30:35.997Z,1.27
2023-01-19T19:33:03.068Z,1.58
2023-01-19T19:35:30.134Z,1.70
2023-01-19T19:37:57.992Z,1.38
2023-01-19T19:40:26.223Z,1.65
2023-01-19T19:42:53.446Z,1.48
2023-01-19T19:45:20.618Z,1.42
2023-01-19T19:47:47.705Z,2.00
2023-01-19T19:50:15.216Z,1.65
2023-01-19T19:52:42.937Z,2.15
2023-01-19T19:55:10.980Z,2.10
2023-01-19T19:57:38.214Z,1.30
2023-01-19T20:00:06.528Z,1.50
2023-01-19T20:02:33.607Z,1.55
2023-01-19T20:05:00.823Z,1.60
2023-01-19T20:07:27.945Z,1.60
2023-01-19T20:09:55.390Z,2.03
2023-01-19T20:12:22.702Z,1.77
2023-01-19T20:14:49.932Z,2.00
2023-01-19T20:17:17.004Z,1.52
2023-01-19T20:19:46.648Z,1.63
2023-01-19T20:22:13.637Z,1.80
2023-01-19T20:24:40.759Z,1.60
2023-01-19T20:27:07.949Z,1.80
2023-01-19T20:29:35.236Z,1.55
2023-01-19T20:32:02.271Z,1.65
2023-01-19T20:34:33.326Z,1.90
2023-01-19T20:37:01.946Z,1.67
2023-01-19T20:39:33.588Z,1.25
2023-01-19T20:42:01.430Z,2.50
2023-01-19T20:44:28.505Z,1.70
2023-01-19T20:46:56.031Z,1.65
2023-01-19T20:49:23.490Z,1.55
2023-01-19T20:51:52.343Z,1.88
2023-01-19T20:54:22.632Z,2.10
2023-01-19T20:56:49.859Z,1.52
2023-01-19T20:59:17.478Z,1.90
2023-01-19T21:01:45.234Z,1.80
2023-01-19T21:04:13.003Z,1.85
2023-01-19T21:06:40.958Z,1.83
2023-01-19T21:09:09.269Z,1.55
2023-01-19T21:11:37.936Z,1.58
2023-01-19T21:14:06.098Z,1.17
2023-01-19T21:16:35.504Z,1.75
2023-01-19T21:19:02.958Z,1.67
2023-01-19T21:21:31.673Z,3.05
2023-01-19T21:24:03.880Z,1.60
2023-01-19T21:26:31.801Z,1.67
2023-01-19T21:28:59.755Z,1.50
2023-01-19T21:31:27.874Z,1.25
2023-01-19T21:33:55.677Z,1.33
2023-01-19T21:36:23.765Z,1.95
2023-01-19T21:38:51.751Z,1.40
2023-01-19T21:41:19.775Z,1.20
2023-01-19T21:43:47.128Z,1.50
2023-01-19T21:46:18.731Z,1.77
2023-01-19T21:48:46.538Z,1.25
2023-01-19T21:51:14.792Z,1.30
2023-01-19T21:53:42.431Z,1.40
2023-01-19T21:56:10.948Z,2.03
2023-01-19T21:58:38.668Z,1.63
2023-01-19T22:01:11.117Z,1.63
2023-01-19T22:03:38.315Z,1.70
2023-01-19T22:06:10.863Z,1.58
2023-01-19T22:08:38.385Z,1.30
2023-01-19T22:11:07.504Z,1.65
2023-01-19T22:13:35.758Z,1.55
2023-01-19T22:16:04.457Z,1.52
2023-01-19T22:18:31.529Z,1.58
2023-01-19T22:21:17.997Z,1.05
2023-01-19T22:23:48.015Z,1.13
2023-01-19T22:26:15.170Z,1.30
2023-01-19T22:28:42.279Z,1.30
2023-01-19T22:31:17.691Z,1.75
2023-01-19T22:33:45.383Z,1.10
2023-01-19T22:36:16.622Z,1.08
2023-01-19T22:38:45.029Z,1.35
2023-01-19T22:41:26.336Z,1.10
2023-01-19T22:43:55.571Z,1.38
2023-01-19T22:46:25.408Z,1.23
2023-01-19T22:48:53.217Z,1.70
2023-01-19T22:51:21.969Z,1.50
2023-01-19T22:53:49.431Z,1.40
2023-01-19T22:56:19.384Z,1.77
2023-01-19T22:58:47.755Z,0.90
2023-01-19T23:01:23.241Z,1.10
2023-01-19T23:03:51.369Z,1.00
2023-01-19T23:06:21.530Z,1.25
2023-01-19T23:08:48.861Z,1.40
2023-01-19T23:11:17.522Z,1.50
2023-01-19T23:13:45.449Z,1.30
2023-01-19T23:16:13.565Z,1.77
2023-01-19T23:18:41.814Z,1.40
2023-01-19T23:21:12.331Z,1.40
2023-01-19T23:23:40.223Z,2.03
2023-01-19T23:26:12.895Z,1.95
2023-01-19T23:28:40.200Z,1.75
2023-01-19T23:31:25.020Z,2.00
2023-01-19T23:34:00.208Z,1.50
2023-01-19T23:36:29.414Z,1.65
2023-01-19T23:38:58.934Z,1.38
2023-01-19T23:41:26.776Z,1.27
2023-01-19T23:43:53.914Z,1.52
2023-01-19T23:46:21.692Z,1.65
2023-01-19T23:48:50.133Z,1.75
2023-01-19T23:51:22.897Z,1.70
2023-01-19T23:53:50.433Z,1.20
2023-01-19T23:56:19.393Z,1.42
2023-01-19T23:58:56.659Z,1.50
